createdAt,value
2022-12-08T00:01:29.175Z,6.23
2022-12-08T00:03:58.381Z,6.37
2022-12-08T00:06:54.856Z,6.17
2022-12-08T00:09:38.176Z,6.30
2022-12-08T00:12:18.356Z,5.30
2022-12-08T00:14:50.023Z,6.43
2022-12-08T00:17:17.944Z,6.17
2022-12-08T00:19:45.238Z,6.57
2022-12-08T00:22:13.503Z,5.80
2022-12-08T00:24:44.282Z,5.93
2022-12-08T00:27:14.063Z,6.00
2022-12-08T00:29:42.963Z,6.40
2022-12-08T00:32:10.228Z,6.17
2022-12-08T00:34:37.269Z,5.93
2022-12-08T00:37:05.050Z,6.03
2022-12-08T00:39:32.562Z,6.30
2022-12-08T00:42:14.763Z,5.30
2022-12-08T00:44:44.341Z,6.10
2022-12-08T00:47:12.667Z,5.73
2022-12-08T00:49:39.819Z,6.33
2022-12-08T00:52:07.475Z,5.60
2022-12-08T00:54:35.358Z,6.47
2022-12-08T00:57:03.586Z,5.47
2022-12-08T00:59:30.892Z,5.83
2022-12-08T01:01:57.961Z,5.37
2022-12-08T01:04:25.362Z,5.63
2022-12-08T01:06:52.771Z,5.63
2022-12-08T01:09:20.092Z,5.23
2022-12-08T01:11:47.277Z,5.47
2022-12-08T01:14:14.808Z,5.77
2022-12-08T01:16:43.397Z,5.17
2022-12-08T01:19:14.121Z,5.03
2022-12-08T01:21:42.186Z,5.10
2022-12-08T01:24:17.608Z,5.50
2022-12-08T01:26:44.880Z,5.00
2022-12-08T01:29:12.507Z,6.17
2022-12-08T01:31:40.474Z,5.63
2022-12-08T01:34:08.987Z,5.30
2022-12-08T01:36:37.468Z,5.53
2022-12-08T01:39:07.540Z,5.60
2022-12-08T01:41:37.902Z,5.83
2022-12-08T01:44:04.962Z,5.50
2022-12-08T01:46:34.084Z,5.97
2022-12-08T01:49:20.414Z,5.27
2022-12-08T01:51:58.025Z,4.93
2022-12-08T01:54:29.555Z,4.50
2022-12-08T01:57:08.697Z,5.20
2022-12-08T01:59:41.668Z,4.90
2022-12-08T02:02:11.367Z,4.93
2022-12-08T02:04:38.627Z,4.87
2022-12-08T02:07:08.641Z,4.50
2022-12-08T02:09:38.181Z,4.77
2022-12-08T02:12:05.825Z,4.67
2022-12-08T02:14:34.073Z,4.07
2022-12-08T02:17:19.496Z,4.37
2022-12-08T02:20:18.102Z,3.87
2022-12-08T02:22:57.577Z,4.50
2022-12-08T02:26:11.436Z,5.00
2022-12-08T02:28:51.776Z,4.20
2022-12-08T02:31:36.950Z,4.60
2022-12-08T02:34:21.266Z,4.87
2022-12-08T02:37:18.128Z,4.10
2022-12-08T02:39:59.784Z,4.10
2022-12-08T02:42:44.858Z,3.97
2022-12-08T02:45:23.573Z,4.50
2022-12-08T02:47:52.379Z,3.83
2022-12-08T02:50:19.718Z,4.67
2022-12-08T02:52:48.456Z,4.53
2022-12-08T02:55:41.931Z,4.10
2022-12-08T02:58:47.681Z,3.77
2022-12-08T03:01:39.001Z,4.00
2022-12-08T03:04:24.400Z,4.10
2022-12-08T03:07:11.344Z,4.07
2022-12-08T03:10:10.263Z,4.17
2022-12-08T03:12:46.671Z,4.43
2022-12-08T03:15:18.621Z,4.73
2022-12-08T03:17:54.659Z,4.67
2022-12-08T03:20:25.602Z,4.03
2022-12-08T03:22:56.166Z,4.60
2022-12-08T03:25:25.714Z,4.30
2022-12-08T03:27:53.968Z,4.27
2022-12-08T03:30:21.131Z,4.77
2022-12-08T03:33:00.544Z,4.07
2022-12-08T03:35:31.646Z,4.27
2022-12-08T03:38:11.021Z,4.57
2022-12-08T03:40:39.934Z,4.10
2022-12-08T03:43:07.158Z,4.33
2022-12-08T03:45:34.500Z,4.10
2022-12-08T03:48:01.533Z,3.57
2022-12-08T03:50:28.741Z,4.30
2022-12-08T03:52:55.768Z,3.80
2022-12-08T03:55:23.282Z,3.77
2022-12-08T03:57:50.354Z,3.57
2022-12-08T04:00:17.897Z,3.50
2022-12-08T04:02:45.152Z,3.90
2022-12-08T04:05:12.434Z,3.43
2022-12-08T04:07:39.681Z,3.60
2022-12-08T04:10:08.051Z,3.30
2022-12-08T04:12:35.252Z,3.30
2022-12-08T04:15:02.484Z,3.57
2022-12-08T04:17:29.586Z,2.83
2022-12-08T04:19:56.877Z,3.30
2022-12-08T04:22:23.899Z,3.17
2022-12-08T04:24:51.513Z,3.87
2022-12-08T04:27:18.709Z,4.17
2022-12-08T04:29:45.867Z,4.27
2022-12-08T04:32:12.943Z,4.23
2022-12-08T04:34:40.342Z,3.37
2022-12-08T04:37:07.419Z,3.33
2022-12-08T04:39:35.124Z,2.73
2022-12-08T04:42:02.188Z,3.00
2022-12-08T04:44:29.435Z,2.07
2022-12-08T04:46:56.497Z,3.40
2022-12-08T04:49:25.040Z,3.27
2022-12-08T04:51:52.046Z,3.43
2022-12-08T04:54:19.224Z,2.83
2022-12-08T04:56:46.288Z,3.13
2022-12-08T04:59:13.545Z,3.43
2022-12-08T05:01:41.011Z,2.77
2022-12-08T05:04:08.381Z,2.57
2022-12-08T05:06:35.438Z,3.13
2022-12-08T05:09:08.828Z,3.40
2022-12-08T05:11:36.528Z,3.10
2022-12-08T05:14:03.866Z,3.47
2022-12-08T05:16:31.646Z,3.80
2022-12-08T05:18:58.683Z,2.93
2022-12-08T05:21:25.831Z,3.10
2022-12-08T05:23:53.002Z,3.27
2022-12-08T05:26:20.536Z,3.30
2022-12-08T05:28:47.762Z,4.20
2022-12-08T05:31:16.779Z,4.07
2022-12-08T05:33:45.280Z,4.20
2022-12-08T05:36:14.807Z,3.53
2022-12-08T05:38:42.549Z,4.23
2022-12-08T05:41:20.901Z,4.83
2022-12-08T05:43:48.595Z,4.63
2022-12-08T05:46:16.542Z,4.50
2022-12-08T05:48:43.891Z,4.20
2022-12-08T05:51:22.485Z,4.70
2022-12-08T05:53:51.192Z,3.93
2022-12-08T05:56:19.921Z,3.90
2022-12-08T05:58:47.590Z,4.07
2022-12-08T06:01:26.387Z,3.93
2022-12-08T06:03:55.113Z,3.33
2022-12-08T06:06:22.356Z,3.00
2022-12-08T06:08:50.128Z,3.17
2022-12-08T06:11:26.147Z,3.23
2022-12-08T06:13:53.609Z,2.60
2022-12-08T06:16:20.857Z,2.53
2022-12-08T06:18:48.639Z,3.30
2022-12-08T06:21:17.036Z,3.17
2022-12-08T06:23:47.475Z,3.00
2022-12-08T06:26:15.993Z,2.87
2022-12-08T06:28:44.540Z,2.83
2022-12-08T06:31:15.650Z,2.27
2022-12-08T06:33:43.152Z,3.00
2022-12-08T06:36:12.254Z,2.57
2022-12-08T06:38:43.329Z,2.70
2022-12-08T06:41:12.789Z,2.83
2022-12-08T06:43:41.345Z,3.20
2022-12-08T06:46:11.782Z,2.57
2022-12-08T06:48:39.060Z,2.70
2022-12-08T06:51:11.003Z,3.33
2022-12-08T06:53:39.536Z,3.60
2022-12-08T06:56:07.343Z,2.70
2022-12-08T06:58:35.166Z,3.70
2022-12-08T07:01:13.348Z,2.90
2022-12-08T07:03:41.417Z,3.40
2022-12-08T07:06:08.462Z,3.27
2022-12-08T07:08:35.880Z,3.13
2022-12-08T07:11:10.633Z,2.70
2022-12-08T07:13:38.275Z,3.23
2022-12-08T07:16:07.269Z,3.87
2022-12-08T07:18:35.200Z,2.83
2022-12-08T07:21:12.638Z,2.60
2022-12-08T07:23:39.913Z,3.73
2022-12-08T07:26:10.183Z,2.97
2022-12-08T07:28:39.273Z,2.90
2022-12-08T07:31:07.919Z,3.07
2022-12-08T07:33:36.335Z,3.53
2022-12-08T07:36:05.616Z,3.47
2022-12-08T07:38:33.082Z,2.13
2022-12-08T07:41:01.858Z,2.87
2022-12-08T07:43:29.141Z,2.70
2022-12-08T07:45:56.274Z,2.73
2022-12-08T07:48:23.658Z,3.43
2022-12-08T07:50:50.708Z,2.67
2022-12-08T07:53:18.009Z,2.83
2022-12-08T07:55:45.475Z,3.33
2022-12-08T07:58:12.830Z,2.93
2022-12-08T08:00:40.065Z,2.47
2022-12-08T08:03:09.203Z,2.37
2022-12-08T08:05:36.418Z,3.20
2022-12-08T08:08:04.204Z,3.17
2022-12-08T08:10:31.305Z,3.53
2022-12-08T08:13:01.832Z,3.70
2022-12-08T08:15:29.187Z,3.80
2022-12-08T08:17:56.569Z,3.57
2022-12-08T08:20:23.719Z,3.97
2022-12-08T08:22:51.695Z,4.23
2022-12-08T08:25:25.183Z,3.77
2022-12-08T08:27:52.863Z,3.73
2022-12-08T08:30:21.151Z,3.57
2022-12-08T08:32:49.515Z,3.67
2022-12-08T08:35:17.509Z,3.87
2022-12-08T08:37:48.798Z,4.10
2022-12-08T08:40:18.180Z,3.33
2022-12-08T08:42:45.542Z,3.50
2022-12-08T08:45:13.470Z,3.20
2022-12-08T08:47:40.648Z,3.83
2022-12-08T08:50:08.911Z,3.63
2022-12-08T08:52:36.470Z,3.43
2022-12-08T08:55:04.459Z,3.30
2022-12-08T08:57:31.537Z,3.33
2022-12-08T08:59:58.790Z,3.13
2022-12-08T09:02:25.833Z,3.43
2022-12-08T09:04:53.235Z,4.20
2022-12-08T09:07:20.286Z,3.63
2022-12-08T09:09:48.944Z,3.60
2022-12-08T09:12:16.073Z,3.83
2022-12-08T09:14:43.983Z,3.93
2022-12-08T09:17:11.042Z,4.00
2022-12-08T09:19:40.742Z,4.03
2022-12-08T09:22:07.831Z,3.90
2022-12-08T09:24:35.353Z,4.03
2022-12-08T09:27:02.430Z,4.03
2022-12-08T09:29:35.400Z,4.07
2022-12-08T09:32:03.764Z,3.87
2022-12-08T09:34:32.072Z,3.90
2022-12-08T09:36:59.914Z,4.03
2022-12-08T09:39:27.467Z,4.37
2022-12-08T09:42:14.321Z,4.27
2022-12-08T09:45:03.931Z,4.03
2022-12-08T09:47:41.218Z,4.27
2022-12-08T09:50:31.363Z,4.40
2022-12-08T09:53:35.237Z,3.67
2022-12-08T09:56:19.729Z,4.20
2022-12-08T09:58:55.714Z,4.23
2022-12-08T10:01:27.502Z,3.67
2022-12-08T10:03:56.397Z,3.57
2022-12-08T10:06:29.606Z,3.93
2022-12-08T10:09:35.175Z,3.73
2022-12-08T10:12:21.567Z,3.83
2022-12-08T10:14:54.744Z,4.37
2022-12-08T10:17:45.004Z,4.30
2022-12-08T10:20:18.361Z,3.63
2022-12-08T10:23:13.048Z,4.37
2022-12-08T10:25:49.403Z,3.97
2022-12-08T10:28:17.324Z,4.00
2022-12-08T10:30:44.925Z,4.50
2022-12-08T10:33:18.339Z,4.30
2022-12-08T10:35:54.733Z,4.17
2022-12-08T10:38:21.905Z,4.00
2022-12-08T10:40:53.503Z,3.80
2022-12-08T10:43:27.276Z,4.17
2022-12-08T10:45:54.938Z,3.57
2022-12-08T10:48:27.107Z,3.93
2022-12-08T10:50:56.969Z,3.67
2022-12-08T10:53:29.773Z,4.50
2022-12-08T10:56:03.249Z,3.67
2022-12-08T10:58:40.693Z,4.63
2022-12-08T11:01:33.230Z,4.40
2022-12-08T11:04:03.297Z,3.57
2022-12-08T11:06:37.089Z,3.90
2022-12-08T11:09:31.183Z,4.03
2022-12-08T11:12:14.765Z,4.50
2022-12-08T11:14:44.979Z,3.87
2022-12-08T11:17:16.213Z,4.40
2022-12-08T11:19:56.576Z,3.80
2022-12-08T11:22:46.606Z,4.37
2022-12-08T11:25:19.074Z,4.33
2022-12-08T11:27:49.622Z,4.30
2022-12-08T11:30:25.615Z,4.83
2022-12-08T11:33:12.647Z,4.00
2022-12-08T11:35:43.999Z,4.33
2022-12-08T11:38:23.903Z,4.37
2022-12-08T11:40:55.900Z,4.83
2022-12-08T11:43:30.984Z,3.93
2022-12-08T11:46:01.296Z,4.83
2022-12-08T11:48:53.742Z,4.50
2022-12-08T11:51:32.463Z,3.83
2022-12-08T11:54:15.471Z,4.83
2022-12-08T11:56:50.439Z,5.17
2022-12-08T11:59:27.095Z,5.13
2022-12-08T12:01:54.454Z,4.37
2022-12-08T12:04:39.898Z,4.97
2022-12-08T12:07:12.696Z,5.23
2022-12-08T12:10:17.011Z,3.80
2022-12-08T12:13:21.384Z,4.33
2022-12-08T12:16:27.658Z,4.30
2022-12-08T12:19:01.827Z,3.90
2022-12-08T12:21:53.095Z,3.77
2022-12-08T12:24:27.504Z,3.37
2022-12-08T12:27:02.458Z,3.97
2022-12-08T12:29:37.698Z,3.77
2022-12-08T12:32:10.654Z,3.77
2022-12-08T12:34:49.039Z,3.40
2022-12-08T12:37:23.835Z,2.87
2022-12-08T12:39:58.547Z,3.20
2022-12-08T12:42:45.294Z,3.53
2022-12-08T12:45:18.727Z,3.20
2022-12-08T12:48:01.137Z,2.93
2022-12-08T12:50:34.747Z,2.90
2022-12-08T12:53:18.403Z,3.07
2022-12-08T12:55:46.608Z,3.43
2022-12-08T12:58:28.674Z,3.10
2022-12-08T13:01:13.097Z,3.53
2022-12-08T13:03:48.616Z,2.67
2022-12-08T13:06:23.729Z,3.10
2022-12-08T13:08:55.389Z,3.20
2022-12-08T13:11:24.502Z,3.17
2022-12-08T13:14:00.400Z,2.83
2022-12-08T13:16:32.017Z,3.70
2022-12-08T13:19:03.943Z,3.13
2022-12-08T13:21:40.071Z,3.43
2022-12-08T13:24:28.050Z,3.73
2022-12-08T13:27:04.390Z,2.90
2022-12-08T13:29:35.800Z,3.77
2022-12-08T13:32:05.409Z,3.13
2022-12-08T13:34:49.587Z,3.70
2022-12-08T13:37:54.005Z,3.37
2022-12-08T13:40:32.309Z,2.70
2022-12-08T13:43:16.636Z,3.43
2022-12-08T13:56:05.578Z,3.27
2022-12-08T13:57:33.972Z,3.13
2022-12-08T14:00:05.655Z,3.47
2022-12-08T14:02:47.760Z,3.67
2022-12-08T14:05:40.842Z,3.43
2022-12-08T14:08:36.360Z,3.67
2022-12-08T14:11:07.370Z,2.97
2022-12-08T14:13:34.852Z,2.93
2022-12-08T14:16:02.675Z,3.10
2022-12-08T14:18:32.153Z,3.27
2022-12-08T14:21:22.378Z,3.60
2022-12-08T14:23:49.622Z,3.03
2022-12-08T14:26:18.133Z,3.00
2022-12-08T14:28:45.499Z,3.60
2022-12-08T14:31:14.845Z,2.90
2022-12-08T14:33:43.269Z,3.20
2022-12-08T14:36:14.732Z,3.37
2022-12-08T14:38:41.866Z,3.37
2022-12-08T14:41:12.197Z,2.90
2022-12-08T14:43:41.159Z,2.83
2022-12-08T14:46:23.505Z,2.53
2022-12-08T14:48:50.962Z,3.10
2022-12-08T14:51:21.718Z,3.00
2022-12-08T14:53:59.142Z,3.20
2022-12-08T14:56:33.128Z,2.73
2022-12-08T14:59:14.458Z,3.03
2022-12-08T15:01:43.268Z,2.33
2022-12-08T15:04:15.551Z,2.87
2022-12-08T15:06:54.494Z,2.97
2022-12-08T15:09:39.558Z,3.10
2022-12-08T15:12:13.315Z,3.13
2022-12-08T15:15:01.379Z,3.30
2022-12-08T15:17:34.999Z,2.87
2022-12-08T15:20:04.627Z,2.80
2022-12-08T15:22:32.589Z,3.17
2022-12-08T15:25:00.996Z,2.80
2022-12-08T15:27:34.927Z,3.23
2022-12-08T15:30:07.254Z,2.77
2022-12-08T15:32:35.110Z,2.83
2022-12-08T15:35:02.832Z,2.90
2022-12-08T15:37:30.276Z,2.67
2022-12-08T15:39:57.530Z,2.60
2022-12-08T15:42:24.859Z,2.50
2022-12-08T15:44:52.106Z,2.40
2022-12-08T15:47:22.736Z,2.80
2022-12-08T15:49:51.705Z,2.30
2022-12-08T15:52:22.059Z,2.80
2022-12-08T15:54:49.635Z,2.70
2022-12-08T15:57:53.535Z,2.53
2022-12-08T16:00:52.887Z,2.27
2022-12-08T16:09:33.730Z,2.33
2022-12-08T16:12:20.175Z,2.30
2022-12-08T16:17:36.158Z,2.37
2022-12-08T16:20:04.342Z,2.70
2022-12-08T16:25:21.712Z,2.63
2022-12-08T16:28:17.237Z,2.40
2022-12-08T16:30:42.479Z,2.67
2022-12-08T16:33:12.063Z,2.50
2022-12-08T16:35:39.648Z,3.10
2022-12-08T16:38:06.685Z,2.53
2022-12-08T16:40:54.145Z,2.30
2022-12-08T16:43:21.255Z,2.07
2022-12-08T16:45:48.444Z,2.20
2022-12-08T16:48:15.886Z,2.27
2022-12-08T16:50:45.436Z,2.47
2022-12-08T16:53:13.816Z,2.00
2022-12-08T16:55:41.320Z,2.50
2022-12-08T16:58:08.710Z,2.13
2022-12-08T17:00:37.188Z,2.03
2022-12-08T17:03:08.260Z,2.30
2022-12-08T17:05:35.751Z,2.33
2022-12-08T17:08:02.792Z,2.37
2022-12-08T17:10:34.614Z,2.47
2022-12-08T17:13:02.740Z,2.50
2022-12-08T17:15:30.109Z,2.23
2022-12-08T17:18:00.631Z,2.63
2022-12-08T17:20:29.299Z,2.60
2022-12-08T17:22:58.376Z,3.20
2022-12-08T17:25:27.037Z,2.90
2022-12-08T17:27:54.473Z,3.40
2022-12-08T17:30:21.905Z,3.70
2022-12-08T17:32:49.528Z,3.70
2022-12-08T17:35:16.897Z,3.53
2022-12-08T17:37:44.364Z,3.70
2022-12-08T17:40:12.019Z,3.50
2022-12-08T17:42:39.586Z,3.60
2022-12-08T17:45:08.571Z,3.43
2022-12-08T17:47:36.953Z,3.17
2022-12-08T17:50:05.089Z,3.23
2022-12-08T17:52:32.490Z,2.97
2022-12-08T17:54:59.710Z,3.07
2022-12-08T17:57:27.014Z,3.00
2022-12-08T17:59:54.460Z,3.30
2022-12-08T18:02:22.027Z,3.27
2022-12-08T18:04:49.202Z,4.27
2022-12-08T18:07:16.586Z,3.77
2022-12-08T18:09:43.839Z,3.50
2022-12-08T18:12:11.093Z,3.67
2022-12-08T18:14:38.322Z,3.47
2022-12-08T18:17:06.033Z,3.93
2022-12-08T18:19:33.373Z,3.90
2022-12-08T18:22:01.727Z,3.93
2022-12-08T18:24:29.132Z,4.33
2022-12-08T18:26:59.307Z,4.07
2022-12-08T18:29:26.531Z,3.70
2022-12-08T18:31:57.027Z,3.83
2022-12-08T18:34:25.240Z,3.50
2022-12-08T18:36:53.076Z,4.23
2022-12-08T18:39:23.599Z,3.97
2022-12-08T18:41:52.304Z,3.93
2022-12-08T18:44:22.436Z,3.63
2022-12-08T18:46:49.785Z,4.20
2022-12-08T18:49:19.569Z,4.33
2022-12-08T18:51:47.078Z,4.03
2022-12-08T18:54:14.647Z,4.73
2022-12-08T18:56:41.923Z,4.37
2022-12-08T18:59:11.546Z,4.60
2022-12-08T19:01:40.443Z,5.30
2022-12-08T19:06:58.351Z,4.33
2022-12-08T19:09:27.126Z,4.97
2022-12-08T19:11:55.263Z,5.30
2022-12-08T19:14:27.883Z,4.60
2022-12-08T19:17:01.946Z,4.93
2022-12-08T19:19:29.220Z,4.60
2022-12-08T19:21:57.137Z,4.93
2022-12-08T19:24:25.258Z,5.37
2022-12-08T19:26:52.903Z,5.53
2022-12-08T19:29:20.200Z,5.00
2022-12-08T19:31:47.971Z,5.17
2022-12-08T19:34:15.378Z,4.70
2022-12-08T19:36:43.288Z,4.53
2022-12-08T19:39:41.566Z,5.27
2022-12-08T19:42:33.789Z,5.40
2022-12-08T19:45:23.139Z,5.27
2022-12-08T19:47:52.469Z,4.33
2022-12-08T19:50:38.448Z,5.37
2022-12-08T19:53:14.897Z,5.30
2022-12-08T19:55:44.004Z,5.33
2022-12-08T19:58:11.526Z,5.63
2022-12-08T20:00:40.094Z,5.40
2022-12-08T20:03:07.872Z,5.17
2022-12-08T20:05:36.759Z,4.93
2022-12-08T20:08:04.323Z,5.03
2022-12-08T20:10:34.543Z,5.37
2022-12-08T20:13:20.292Z,5.13
2022-12-08T20:15:48.066Z,4.87
2022-12-08T20:18:16.933Z,4.93
2022-12-08T20:20:46.018Z,5.03
2022-12-08T20:23:14.902Z,5.00
2022-12-08T20:25:45.188Z,5.37
2022-12-08T20:28:12.716Z,5.20
2022-12-08T20:30:41.915Z,5.70
2022-12-08T20:33:12.746Z,5.80
2022-12-08T20:35:40.033Z,5.97
2022-12-08T20:38:07.401Z,5.27
2022-12-08T20:40:34.711Z,5.53
2022-12-08T20:43:02.023Z,5.23
2022-12-08T20:45:29.222Z,4.83
2022-12-08T20:47:56.833Z,5.53
2022-12-08T20:50:24.147Z,6.00
2022-12-08T20:52:51.476Z,6.10
2022-12-08T20:55:19.952Z,5.27
2022-12-08T20:57:47.386Z,5.73
2022-12-08T21:00:17.101Z,5.97
2022-12-08T21:02:52.044Z,5.03
2022-12-08T21:05:27.804Z,5.37
2022-12-08T21:07:55.017Z,5.80
2022-12-08T21:10:22.508Z,5.73
2022-12-08T21:12:49.751Z,5.30
2022-12-08T21:15:17.029Z,6.90
2022-12-08T21:17:44.583Z,6.03
2022-12-08T21:20:12.156Z,7.00
2022-12-08T21:22:40.456Z,6.57
2022-12-08T21:25:08.561Z,6.40
2022-12-08T21:27:37.872Z,6.07
2022-12-08T21:30:08.963Z,6.53
2022-12-08T21:32:39.584Z,5.93
2022-12-08T21:35:09.373Z,6.47
2022-12-08T21:37:37.007Z,6.13
2022-12-08T21:40:06.995Z,5.63
2022-12-08T21:42:46.804Z,5.03
2022-12-08T21:45:21.322Z,5.30
2022-12-08T21:47:50.089Z,4.83
2022-12-08T21:50:18.111Z,5.10
2022-12-08T21:52:49.110Z,5.60
2022-12-08T21:55:20.368Z,4.60
2022-12-08T21:57:47.863Z,6.13
2022-12-08T22:00:17.066Z,5.63
2022-12-08T22:02:45.659Z,5.13
2022-12-08T22:05:13.378Z,5.80
2022-12-08T22:07:41.816Z,5.60
2022-12-08T22:10:10.713Z,5.47
2022-12-08T22:12:39.577Z,4.83
2022-12-08T22:15:09.083Z,5.70
2022-12-08T22:17:38.675Z,5.80
2022-12-08T22:20:08.486Z,5.10
2022-12-08T22:22:39.198Z,5.27
2022-12-08T22:25:08.193Z,5.30
2022-12-08T22:27:35.818Z,5.03
2022-12-08T22:30:03.859Z,6.13
2022-12-08T22:32:32.471Z,5.60
2022-12-08T22:34:59.968Z,5.63
2022-12-08T22:37:28.038Z,5.50
2022-12-08T22:39:55.423Z,5.47
2022-12-08T22:42:23.883Z,5.60
2022-12-08T22:44:51.491Z,5.30
2022-12-08T22:47:19.238Z,5.70
2022-12-08T22:49:46.791Z,5.47
2022-12-08T22:52:14.568Z,5.67
2022-12-08T22:54:42.172Z,5.53
2022-12-08T22:57:09.343Z,5.57
2022-12-08T22:59:36.386Z,5.40
2022-12-08T23:02:04.136Z,5.67
2022-12-08T23:04:31.290Z,5.87
2022-12-08T23:06:58.607Z,6.37
2022-12-08T23:09:25.735Z,5.47
2022-12-08T23:11:54.020Z,6.23
2022-12-08T23:14:21.349Z,6.00
2022-12-08T23:16:49.161Z,5.50
2022-12-08T23:19:17.037Z,5.70
2022-12-08T23:21:44.543Z,6.57
2022-12-08T23:24:11.750Z,5.30
2022-12-08T23:26:39.068Z,5.77
2022-12-08T23:29:06.455Z,4.97
2022-12-08T23:31:34.071Z,5.57
2022-12-08T23:34:03.019Z,5.77
2022-12-08T23:36:32.056Z,5.77
2022-12-08T23:38:59.312Z,6.33
2022-12-08T23:41:26.604Z,5.67
2022-12-08T23:43:53.779Z,5.57
2022-12-08T23:46:23.591Z,5.10
2022-12-08T23:48:51.596Z,5.70
2022-12-08T23:51:18.667Z,5.70
2022-12-08T23:53:46.966Z,5.63
2022-12-08T23:56:16.343Z,5.37
2022-12-08T23:58:44.139Z,5.57
